Main page
METAR-TAF:

METAR-TAF

Airports :

Kaunas Airport

Kaunas, Lithuania

latitude: 54-54N, longitude: 023-55-12E, elevation: 77 m

Current weather observation

The report was made 32 minutes ago, at 04:20 UTC
Wind 4 kt from the East/Northeast, varying between North and Southeast
Temperature -1°C
Humidity 80%
Pressure 1030 hPa
Visibility 10 km or more
Overcast at a height of 1100 ft

METAR: EYKA 210420Z 06004KT 360V130 9999 OVC011 M01/M04 Q1030 R08/090095

Time: 06:52 (04:52 UTC)

Forecast

The report was made 5 hours and 47 minutes ago, at 23:05 UTC
Forecast valid from 21 at 00 UTC to 21 at 24 UTC
Wind 5 kt from variable directions
Visibility: 5000 m
Overcast at a height of 1000 ft
mist
Temporary
from 21 at 00 UTC to 21 at 09 UTC
Broken clouds at a height of 500 ft
Becoming
from 21 at 09 UTC to 21 at 10 UTC
Visibility: 9000 m
Becoming
from 21 at 18 UTC to 21 at 20 UTC
Broken clouds at a height of 500 ft

TAF: EYKA 202305Z 2100/2124 VRB05KT 5000 BR OVC010 TEMPO 2100/2109 BKN005 BECMG 2109/2110 9000 BECMG 2118/2120 BKN005

Weather observations and forecasts of more than 4000 airports (METAR and TAF reports).

The available stations are represented by yellow and red dots on the map.

Hover mouse over dot to see the name of the station.

Then click to see weather observations and forecasts.

To change the map : click on the green buttons with a black cross to zoom in, on the green button with a dash to zoom out, or on the green arrows for adjacent maps.


METAR-TAF: